createdAt,value
2019-06-20T00:01:04.292Z,19.60
2019-06-20T00:03:34.380Z,19.59
2019-06-20T00:06:03.259Z,19.57
2019-06-20T00:08:32.315Z,19.54
2019-06-20T00:11:01.267Z,19.51
2019-06-20T00:13:30.380Z,19.51
2019-06-20T00:15:59.064Z,19.52
2019-06-20T00:18:28.520Z,19.49
2019-06-20T00:20:58.064Z,19.47
2019-06-20T00:23:26.968Z,19.46
2019-06-20T00:25:56.708Z,19.46
2019-06-20T00:28:25.643Z,19.45
2019-06-20T00:30:54.665Z,19.44
2019-06-20T00:33:25.026Z,19.39
2019-06-20T00:35:53.878Z,19.38
2019-06-20T00:38:22.843Z,19.37
2019-06-20T00:40:51.822Z,19.36
2019-06-20T00:43:20.760Z,19.34
2019-06-20T00:45:49.790Z,19.35
2019-06-20T00:48:18.673Z,19.34
2019-06-20T00:50:47.935Z,19.36
2019-06-20T00:53:16.817Z,19.37
2019-06-20T00:55:45.696Z,19.35
2019-06-20T00:58:14.973Z,19.30
2019-06-20T01:00:43.986Z,19.29
2019-06-20T01:03:12.879Z,19.25
2019-06-20T01:05:42.283Z,19.23
2019-06-20T01:08:11.200Z,19.18
2019-06-20T01:10:40.867Z,19.11
2019-06-20T01:13:09.733Z,19.05
2019-06-20T01:15:38.709Z,18.99
2019-06-20T01:18:07.654Z,18.96
2019-06-20T01:20:36.670Z,18.93
2019-06-20T01:23:05.571Z,18.91
2019-06-20T01:25:37.210Z,18.87
2019-06-20T01:28:06.056Z,18.85
2019-06-20T01:30:35.004Z,18.86
2019-06-20T01:33:05.732Z,18.86
2019-06-20T01:35:34.619Z,18.86
2019-06-20T01:38:03.482Z,18.85
2019-06-20T01:40:32.573Z,18.81
2019-06-20T01:43:01.661Z,18.81
2019-06-20T01:45:30.524Z,18.78
2019-06-20T01:48:00.155Z,18.79
2019-06-20T01:50:29.054Z,18.80
2019-06-20T01:52:58.626Z,18.79
2019-06-20T01:55:27.469Z,18.79
2019-06-20T01:57:56.553Z,18.77
2019-06-20T02:00:33.059Z,18.75
2019-06-20T02:03:01.973Z,18.73
2019-06-20T02:05:31.465Z,18.69
2019-06-20T02:08:01.421Z,18.65
2019-06-20T02:10:30.410Z,18.64
2019-06-20T02:12:59.298Z,18.57
2019-06-20T02:15:28.579Z,18.55
2019-06-20T02:17:57.575Z,18.52
2019-06-20T02:20:29.949Z,18.53
2019-06-20T02:22:58.798Z,18.54
2019-06-20T02:25:28.901Z,18.53
2019-06-20T02:27:58.151Z,18.55
2019-06-20T02:30:27.136Z,18.49
2019-06-20T02:32:56.956Z,18.48
2019-06-20T02:35:26.504Z,18.47
2019-06-20T02:37:55.463Z,18.43
2019-06-20T02:40:24.331Z,18.40
2019-06-20T02:42:53.573Z,18.37
2019-06-20T02:45:22.718Z,18.31
2019-06-20T02:47:51.926Z,18.27
2019-06-20T02:50:21.525Z,18.24
2019-06-20T02:52:50.512Z,18.22
2019-06-20T02:55:19.376Z,18.19
2019-06-20T02:57:48.283Z,18.17
2019-06-20T03:00:21.596Z,18.18
2019-06-20T03:02:51.079Z,18.18
2019-06-20T03:05:19.872Z,18.19
2019-06-20T03:07:48.765Z,18.24
2019-06-20T03:10:18.340Z,18.27
2019-06-20T03:12:48.095Z,18.31
2019-06-20T03:15:16.955Z,18.35
2019-06-20T03:17:45.883Z,18.37
2019-06-20T03:20:15.049Z,18.38
2019-06-20T03:22:43.996Z,18.40
2019-06-20T03:25:14.863Z,18.38
2019-06-20T03:27:44.439Z,18.39
2019-06-20T03:30:14.655Z,18.41
2019-06-20T03:32:43.615Z,18.43
2019-06-20T03:35:12.615Z,18.45
2019-06-20T03:37:41.509Z,18.45
2019-06-20T03:40:10.380Z,18.45
2019-06-20T03:42:39.409Z,18.44
2019-06-20T03:45:08.299Z,18.39
2019-06-20T03:47:37.844Z,18.37
2019-06-20T03:50:06.730Z,18.37
2019-06-20T03:52:37.007Z,18.35
2019-06-20T03:55:07.399Z,18.32
2019-06-20T03:57:36.328Z,18.32
2019-06-20T04:00:05.688Z,18.30
2019-06-20T04:02:36.214Z,18.29
2019-06-20T04:05:06.800Z,18.24
2019-06-20T04:07:36.629Z,18.26
2019-06-20T04:10:05.606Z,18.29
2019-06-20T04:12:34.479Z,18.31
2019-06-20T04:15:18.000Z,18.32
2019-06-20T04:17:33.271Z,18.31
2019-06-20T04:20:03.653Z,18.35
2019-06-20T04:22:32.891Z,18.39
2019-06-20T04:25:02.014Z,18.42
2019-06-20T04:27:30.917Z,18.46
2019-06-20T04:29:59.926Z,18.49
2019-06-20T04:32:30.031Z,18.51
2019-06-20T04:34:59.507Z,18.50
2019-06-20T04:37:29.395Z,18.46
2019-06-20T04:39:58.462Z,18.46
2019-06-20T04:42:27.720Z,18.47
2019-06-20T04:44:56.563Z,18.51
2019-06-20T04:47:25.542Z,18.55
2019-06-20T04:49:54.542Z,18.59
2019-06-20T04:52:24.365Z,18.62
2019-06-20T04:54:53.286Z,18.63
2019-06-20T04:57:22.131Z,18.63
2019-06-20T04:59:55.301Z,18.62
2019-06-20T05:02:29.301Z,18.63
2019-06-20T05:04:58.696Z,18.64
2019-06-20T05:07:27.675Z,18.63
2019-06-20T05:09:56.542Z,18.63
2019-06-20T05:12:25.540Z,18.62
2019-06-20T05:14:54.479Z,18.62
2019-06-20T05:17:23.937Z,18.65
2019-06-20T05:19:52.942Z,18.67
2019-06-20T05:22:23.252Z,18.72
2019-06-20T05:24:52.127Z,18.76
2019-06-20T05:27:21.525Z,18.82
2019-06-20T05:29:50.575Z,18.87
2019-06-20T05:32:19.989Z,18.88
2019-06-20T05:34:49.401Z,18.91
2019-06-20T05:37:18.992Z,18.90
2019-06-20T05:39:47.953Z,18.91
2019-06-20T05:42:16.989Z,18.94
2019-06-20T05:44:45.961Z,18.94
2019-06-20T05:47:14.958Z,18.92
2019-06-20T05:49:43.829Z,18.94
2019-06-20T05:52:12.679Z,18.94
2019-06-20T05:54:41.688Z,18.98
2019-06-20T05:57:10.583Z,19.04
2019-06-20T05:59:39.554Z,19.12
2019-06-20T06:02:14.485Z,19.20
2019-06-20T06:04:45.712Z,19.31
2019-06-20T06:07:14.644Z,19.44
2019-06-20T06:09:43.673Z,19.54
2019-06-20T06:12:13.499Z,19.65
2019-06-20T06:14:44.016Z,19.88
2019-06-20T06:17:13.689Z,20.59
2019-06-20T06:19:42.531Z,20.92
2019-06-20T06:22:11.421Z,21.12
2019-06-20T06:24:40.361Z,21.41
2019-06-20T06:27:09.193Z,21.72
2019-06-20T06:29:38.338Z,22.05
2019-06-20T06:32:07.180Z,22.42
2019-06-20T06:34:37.872Z,22.71
2019-06-20T06:37:07.430Z,22.57
2019-06-20T06:39:36.319Z,22.41
2019-06-20T06:42:05.244Z,22.32
2019-06-20T06:44:34.367Z,22.40
2019-06-20T06:47:03.558Z,22.50
2019-06-20T06:49:32.400Z,22.56
2019-06-20T06:52:01.498Z,22.56
2019-06-20T06:54:30.565Z,22.57
2019-06-20T06:56:59.489Z,22.59
2019-06-20T06:59:28.354Z,22.66
2019-06-20T07:01:57.253Z,22.64
2019-06-20T07:04:26.144Z,22.49
2019-06-20T07:06:55.094Z,22.36
2019-06-20T07:09:24.112Z,22.36
2019-06-20T07:11:53.514Z,22.70
2019-06-20T07:14:22.529Z,22.97
2019-06-20T07:17:00.260Z,23.01
2019-06-20T07:19:20.212Z,23.18
2019-06-20T07:21:49.161Z,23.28
2019-06-20T07:24:18.082Z,23.31
2019-06-20T07:26:47.028Z,23.23
2019-06-20T07:29:15.965Z,23.13
2019-06-20T07:31:44.917Z,23.13
2019-06-20T07:34:14.912Z,23.40
2019-06-20T07:36:43.842Z,23.64
2019-06-20T07:39:13.783Z,23.90
2019-06-20T07:41:42.769Z,24.16
2019-06-20T07:44:12.151Z,24.91
2019-06-20T07:46:41.682Z,25.58
2019-06-20T07:49:10.621Z,25.74
2019-06-20T07:51:39.639Z,25.78
2019-06-20T07:54:09.818Z,25.64
2019-06-20T07:56:38.776Z,25.45
2019-06-20T07:59:07.696Z,25.28
2019-06-20T08:01:36.606Z,25.18
2019-06-20T08:04:05.627Z,25.07
2019-06-20T08:06:34.470Z,25.11
2019-06-20T08:09:03.389Z,24.79
2019-06-20T08:11:32.892Z,24.34
2019-06-20T08:14:01.841Z,24.09
2019-06-20T08:16:30.904Z,24.18
2019-06-20T08:18:59.875Z,24.70
2019-06-20T08:21:28.766Z,25.12
2019-06-20T08:23:57.701Z,25.15
2019-06-20T08:26:26.569Z,25.10
2019-06-20T08:29:10.382Z,25.21
2019-06-20T08:31:24.309Z,25.60
2019-06-20T08:33:54.036Z,25.94
2019-06-20T08:36:24.155Z,26.10
2019-06-20T08:38:56.946Z,26.16
2019-06-20T08:41:24.256Z,26.18
2019-06-20T08:43:55.360Z,26.21
2019-06-20T08:46:23.934Z,26.37
2019-06-20T08:48:54.919Z,26.65
2019-06-20T08:51:23.425Z,26.60
2019-06-20T08:53:52.415Z,26.60
2019-06-20T08:56:21.398Z,26.62
2019-06-20T08:58:50.476Z,26.66
2019-06-20T09:01:19.431Z,26.74
2019-06-20T09:03:48.359Z,26.80
2019-06-20T09:06:17.196Z,26.61
2019-06-20T09:08:46.216Z,26.45
2019-06-20T09:11:15.242Z,26.34
2019-06-20T09:13:44.270Z,26.34
2019-06-20T09:16:24.259Z,26.29
2019-06-20T09:18:44.299Z,26.49
2019-06-20T09:21:13.241Z,26.47
2019-06-20T09:23:42.160Z,26.68
2019-06-20T09:26:11.586Z,26.85
2019-06-20T09:28:41.593Z,26.94
2019-06-20T09:31:10.456Z,26.94
2019-06-20T09:33:40.327Z,26.99
2019-06-20T09:36:09.177Z,27.09
2019-06-20T09:38:38.045Z,27.11
2019-06-20T09:41:09.584Z,27.18
2019-06-20T09:43:41.168Z,27.14
2019-06-20T09:46:10.109Z,27.27
2019-06-20T09:48:39.479Z,27.41
2019-06-20T09:51:08.724Z,27.66
2019-06-20T09:53:37.584Z,27.77
2019-06-20T09:56:08.017Z,27.72
2019-06-20T09:58:37.676Z,27.76
2019-06-20T10:01:06.721Z,27.77
2019-06-20T10:03:35.860Z,27.77
2019-06-20T10:06:14.111Z,27.75
2019-06-20T10:08:39.072Z,27.76
2019-06-20T10:11:08.516Z,27.59
2019-06-20T10:13:38.119Z,27.31
2019-06-20T10:16:09.354Z,26.80
2019-06-20T10:18:38.456Z,26.45
2019-06-20T10:21:07.440Z,26.35
2019-06-20T10:23:36.464Z,26.34
2019-06-20T10:26:05.311Z,26.37
2019-06-20T10:28:34.776Z,26.51
2019-06-20T10:31:04.788Z,26.54
2019-06-20T10:33:33.681Z,26.62
2019-06-20T10:36:02.632Z,26.68
2019-06-20T10:38:32.240Z,26.67
2019-06-20T10:41:02.036Z,26.96
2019-06-20T10:43:31.475Z,27.18
2019-06-20T10:46:01.579Z,27.19
2019-06-20T10:48:31.153Z,27.33
2019-06-20T10:51:05.134Z,27.54
2019-06-20T10:53:35.772Z,27.83
2019-06-20T10:56:05.595Z,27.69
2019-06-20T10:58:35.472Z,27.45
2019-06-20T11:01:05.003Z,27.41
2019-06-20T11:03:34.158Z,27.71
2019-06-20T11:06:05.835Z,27.86
2019-06-20T11:08:35.577Z,27.98
2019-06-20T11:11:04.454Z,28.24
2019-06-20T11:13:33.867Z,28.47
2019-06-20T11:16:02.807Z,28.67
2019-06-20T11:18:31.917Z,28.87
2019-06-20T11:21:00.852Z,28.99
2019-06-20T11:23:29.739Z,29.07
2019-06-20T11:25:58.644Z,29.27
2019-06-20T11:28:27.581Z,29.29
2019-06-20T11:31:00.431Z,29.23
2019-06-20T11:33:25.429Z,29.14
2019-06-20T11:35:54.990Z,29.13
2019-06-20T11:38:24.443Z,29.00
2019-06-20T11:40:53.374Z,28.81
2019-06-20T11:43:22.283Z,28.71
2019-06-20T11:45:51.294Z,28.53
2019-06-20T11:48:21.434Z,28.31
2019-06-20T11:50:50.365Z,28.59
2019-06-20T11:53:19.185Z,29.28
2019-06-20T11:55:48.815Z,29.69
2019-06-20T11:58:17.732Z,29.86
2019-06-20T12:01:02.511Z,29.58
2019-06-20T12:03:15.477Z,29.35
2019-06-20T12:05:44.881Z,29.26
2019-06-20T12:08:13.462Z,29.21
2019-06-20T12:10:45.463Z,29.18
2019-06-20T12:13:14.377Z,29.06
2019-06-20T12:15:44.454Z,29.00
2019-06-20T12:18:13.059Z,29.25
2019-06-20T12:20:42.905Z,29.30
2019-06-20T12:23:11.503Z,29.33
2019-06-20T12:25:40.934Z,29.60
2019-06-20T12:28:09.566Z,29.78
2019-06-20T12:30:40.169Z,29.72
2019-06-20T12:33:08.451Z,29.75
2019-06-20T12:35:37.857Z,29.65
2019-06-20T12:38:06.740Z,29.97
2019-06-20T12:40:35.587Z,30.11
2019-06-20T12:43:04.447Z,30.29
2019-06-20T12:45:34.504Z,30.28
2019-06-20T12:48:03.373Z,30.09
2019-06-20T12:50:33.368Z,30.08
2019-06-20T12:53:02.224Z,30.19
2019-06-20T12:55:31.360Z,30.18
2019-06-20T12:58:00.570Z,29.81
2019-06-20T13:00:30.353Z,29.54
2019-06-20T13:02:59.353Z,29.31
2019-06-20T13:05:28.334Z,29.09
2019-06-20T13:07:57.272Z,29.10
2019-06-20T13:10:26.119Z,29.18
2019-06-20T13:12:56.283Z,29.14
2019-06-20T13:15:25.148Z,29.08
2019-06-20T13:17:54.016Z,28.96
2019-06-20T13:20:23.373Z,28.77
2019-06-20T13:22:53.951Z,28.60
2019-06-20T13:25:23.679Z,28.43
2019-06-20T13:27:53.769Z,28.24
2019-06-20T13:30:24.416Z,27.97
2019-06-20T13:32:56.013Z,27.70
2019-06-20T13:35:24.900Z,27.50
2019-06-20T13:37:54.518Z,27.24
2019-06-20T13:40:23.367Z,27.00
2019-06-20T13:42:54.612Z,26.61
2019-06-20T13:45:22.451Z,26.46
2019-06-20T13:47:51.428Z,26.27
2019-06-20T13:50:20.434Z,26.09
2019-06-20T13:52:51.172Z,26.05
2019-06-20T13:55:18.327Z,26.02
2019-06-20T13:57:47.366Z,26.00
2019-06-20T14:00:17.613Z,26.02
2019-06-20T14:02:48.755Z,26.14
2019-06-20T14:05:16.207Z,26.34
2019-06-20T14:07:48.334Z,26.48
2019-06-20T14:10:14.067Z,26.85
2019-06-20T14:12:43.416Z,27.24
2019-06-20T14:15:13.112Z,27.35
2019-06-20T14:17:43.267Z,27.33
2019-06-20T14:20:12.076Z,27.19
2019-06-20T14:22:42.838Z,27.24
2019-06-20T14:25:10.606Z,27.35
2019-06-20T14:27:39.604Z,27.66
2019-06-20T14:30:08.626Z,28.05
2019-06-20T14:32:37.588Z,28.12
2019-06-20T14:35:06.460Z,27.91
2019-06-20T14:37:35.443Z,27.94
2019-06-20T14:40:04.668Z,27.78
2019-06-20T14:42:33.577Z,27.71
2019-06-20T14:45:03.671Z,27.67
2019-06-20T14:47:32.579Z,27.63
2019-06-20T14:50:01.501Z,27.68
2019-06-20T14:52:30.885Z,27.70
2019-06-20T14:54:59.811Z,27.80
2019-06-20T14:57:28.750Z,27.98
2019-06-20T14:59:57.728Z,28.11
2019-06-20T15:02:37.972Z,28.15
2019-06-20T15:04:55.691Z,28.13
2019-06-20T15:07:25.622Z,28.13
2019-06-20T15:09:55.311Z,27.94
2019-06-20T15:12:24.884Z,27.80
2019-06-20T15:14:53.708Z,27.62
2019-06-20T15:17:26.008Z,27.55
2019-06-20T15:19:56.175Z,27.60
2019-06-20T15:22:24.990Z,27.61
2019-06-20T15:24:55.337Z,27.63
2019-06-20T15:27:24.220Z,27.73
2019-06-20T15:29:54.336Z,27.67
2019-06-20T15:32:22.637Z,27.56
2019-06-20T15:34:53.277Z,27.65
2019-06-20T15:37:22.204Z,27.66
2019-06-20T15:39:53.438Z,27.88
2019-06-20T15:42:22.463Z,28.07
2019-06-20T15:44:51.743Z,28.30
2019-06-20T15:47:20.431Z,28.34
2019-06-20T15:49:51.043Z,28.25
2019-06-20T15:52:21.658Z,27.98
2019-06-20T15:54:52.861Z,27.80
2019-06-20T15:57:23.628Z,27.75
2019-06-20T15:59:52.716Z,27.42
2019-06-20T16:02:21.744Z,27.28
2019-06-20T16:04:50.973Z,27.22
2019-06-20T16:07:21.178Z,27.03
2019-06-20T16:09:50.209Z,26.76
2019-06-20T16:12:19.377Z,26.61
2019-06-20T16:14:48.399Z,26.47
2019-06-20T16:17:17.388Z,26.37
2019-06-20T16:19:46.263Z,26.33
2019-06-20T16:22:18.583Z,26.16
2019-06-20T16:24:48.119Z,25.94
2019-06-20T16:27:17.770Z,25.90
2019-06-20T16:29:46.752Z,25.70
2019-06-20T16:32:15.742Z,25.56
2019-06-20T16:34:45.123Z,25.38
2019-06-20T16:37:14.732Z,25.13
2019-06-20T16:39:43.688Z,25.00
2019-06-20T16:42:12.665Z,24.85
2019-06-20T16:44:41.643Z,24.75
2019-06-20T16:47:11.530Z,24.73
2019-06-20T16:49:41.261Z,24.76
2019-06-20T16:52:10.237Z,24.77
2019-06-20T16:54:40.444Z,24.67
2019-06-20T16:57:09.474Z,24.50
2019-06-20T16:59:38.531Z,24.44
2019-06-20T17:02:07.411Z,24.41
2019-06-20T17:04:36.726Z,24.42
2019-06-20T17:07:05.779Z,24.44
2019-06-20T17:09:35.127Z,24.45
2019-06-20T17:12:04.944Z,24.43
2019-06-20T17:14:35.174Z,24.41
2019-06-20T17:17:04.046Z,24.31
2019-06-20T17:19:33.043Z,24.28
2019-06-20T17:22:01.889Z,24.24
2019-06-20T17:24:31.603Z,24.09
2019-06-20T17:27:00.641Z,24.04
2019-06-20T17:29:29.649Z,24.04
2019-06-20T17:31:58.832Z,23.97
2019-06-20T17:34:27.936Z,23.90
2019-06-20T17:36:58.021Z,23.87
2019-06-20T17:39:27.072Z,23.87
2019-06-20T17:41:56.216Z,23.90
2019-06-20T17:44:27.632Z,23.96
2019-06-20T17:46:55.857Z,23.96
2019-06-20T17:49:24.881Z,23.91
2019-06-20T17:51:54.055Z,23.81
2019-06-20T17:54:23.091Z,23.78
2019-06-20T17:56:52.229Z,23.80
2019-06-20T17:59:22.938Z,23.79
2019-06-20T18:01:51.212Z,23.84
2019-06-20T18:04:20.712Z,23.88
2019-06-20T18:06:49.844Z,23.95
2019-06-20T18:09:18.787Z,23.90
2019-06-20T18:11:47.878Z,23.77
2019-06-20T18:14:16.930Z,23.58
2019-06-20T18:16:46.216Z,23.53
2019-06-20T18:19:15.336Z,23.44
2019-06-20T18:21:44.448Z,23.32
2019-06-20T18:24:14.904Z,23.24
2019-06-20T18:26:44.040Z,23.22
2019-06-20T18:29:13.190Z,23.18
2019-06-20T18:31:42.819Z,23.16
2019-06-20T18:34:11.816Z,23.09
2019-06-20T18:36:43.512Z,23.05
2019-06-20T18:39:12.697Z,22.95
2019-06-20T18:41:42.765Z,22.86
2019-06-20T18:44:12.083Z,22.77
2019-06-20T18:46:42.240Z,22.64
2019-06-20T18:49:15.149Z,22.50
2019-06-20T18:51:44.964Z,22.43
2019-06-20T18:54:15.294Z,22.29
2019-06-20T18:56:46.173Z,22.15
2019-06-20T18:59:16.266Z,22.21
2019-06-20T19:01:45.257Z,22.10
2019-06-20T19:04:14.279Z,21.99
2019-06-20T19:06:44.272Z,21.93
2019-06-20T19:09:13.667Z,21.84
2019-06-20T19:11:44.225Z,21.80
2019-06-20T19:14:13.816Z,21.74
2019-06-20T19:16:43.800Z,21.64
2019-06-20T19:19:12.951Z,21.55
2019-06-20T19:21:41.973Z,21.49
2019-06-20T19:24:11.000Z,21.43
2019-06-20T19:26:39.985Z,21.38
2019-06-20T19:29:09.286Z,21.25
2019-06-20T19:31:38.884Z,21.17
2019-06-20T19:34:08.404Z,21.10
2019-06-20T19:36:37.384Z,21.04
2019-06-20T19:39:07.775Z,20.96
2019-06-20T19:41:36.708Z,20.88
2019-06-20T19:44:05.741Z,20.83
2019-06-20T19:46:35.609Z,20.76
2019-06-20T19:49:04.736Z,20.67
2019-06-20T19:51:33.991Z,20.60
2019-06-20T19:54:02.953Z,20.53
2019-06-20T19:56:32.116Z,20.45
2019-06-20T19:59:02.378Z,20.37
2019-06-20T20:01:32.142Z,20.29
2019-06-20T20:04:03.273Z,20.18
2019-06-20T20:06:32.490Z,20.12
2019-06-20T20:09:01.381Z,20.04
2019-06-20T20:11:31.552Z,19.98
2019-06-20T20:14:00.464Z,19.91
2019-06-20T20:16:29.302Z,19.85
2019-06-20T20:18:59.468Z,19.76
2019-06-20T20:21:28.460Z,19.71
2019-06-20T20:23:58.544Z,19.67
2019-06-20T20:26:28.375Z,19.62
2019-06-20T20:29:00.303Z,19.59
2019-06-20T20:31:29.263Z,19.58
2019-06-20T20:33:58.507Z,19.54
2019-06-20T20:36:29.465Z,19.48
2019-06-20T20:38:59.544Z,19.43
2019-06-20T20:41:28.465Z,19.34
2019-06-20T20:43:58.275Z,19.29
2019-06-20T20:46:27.303Z,19.22
2019-06-20T20:48:56.794Z,19.16
2019-06-20T20:51:29.490Z,19.09
2019-06-20T20:53:58.978Z,19.05
2019-06-20T20:56:28.899Z,19.00
2019-06-20T20:59:00.009Z,18.95
2019-06-20T21:01:30.735Z,18.89
2019-06-20T21:04:00.775Z,18.83
2019-06-20T21:06:31.486Z,18.76
2019-06-20T21:09:01.860Z,18.69
2019-06-20T21:11:30.928Z,18.62
2019-06-20T21:13:59.873Z,18.57
2019-06-20T21:16:28.876Z,18.51
2019-06-20T21:18:58.724Z,18.47
2019-06-20T21:21:29.583Z,18.41
2019-06-20T21:23:58.594Z,18.37
2019-06-20T21:26:27.953Z,18.30
2019-06-20T21:28:57.089Z,18.29
2019-06-20T21:31:27.035Z,18.30
2019-06-20T21:33:56.656Z,18.34
2019-06-20T21:36:26.339Z,18.37
2019-06-20T21:38:55.753Z,18.38
2019-06-20T21:41:26.365Z,18.38
2019-06-20T21:43:55.417Z,18.36
2019-06-20T21:46:24.397Z,18.33
2019-06-20T21:48:54.448Z,18.29
2019-06-20T21:51:25.224Z,18.22
2019-06-20T21:53:55.117Z,18.15
2019-06-20T21:56:25.696Z,18.09
2019-06-20T21:58:56.388Z,18.02
2019-06-20T22:01:28.369Z,17.95
2019-06-20T22:03:57.591Z,17.89
2019-06-20T22:06:26.612Z,17.84
2019-06-20T22:08:55.529Z,17.79
2019-06-20T22:11:24.493Z,17.73
2019-06-20T22:13:53.494Z,17.71
2019-06-20T22:16:23.303Z,17.73
2019-06-20T22:18:52.289Z,17.71
2019-06-20T22:21:21.718Z,17.71
2019-06-20T22:23:50.648Z,17.72
2019-06-20T22:26:19.561Z,17.71
2019-06-20T22:28:48.488Z,17.65
2019-06-20T22:31:18.303Z,17.59
2019-06-20T22:33:52.187Z,17.50
2019-06-20T22:36:21.415Z,17.41
2019-06-20T22:38:50.721Z,17.34
2019-06-20T22:41:19.639Z,17.28
2019-06-20T22:43:48.652Z,17.23
2019-06-20T22:46:18.477Z,17.14
2019-06-20T22:48:47.438Z,17.08
2019-06-20T22:51:16.351Z,16.95
2019-06-20T22:53:45.293Z,16.89
2019-06-20T22:56:14.175Z,16.85
2019-06-20T22:58:43.697Z,16.80
2019-06-20T23:01:13.700Z,16.76
2019-06-20T23:03:42.644Z,16.73
2019-06-20T23:06:11.494Z,16.67
2019-06-20T23:08:41.092Z,16.63
2019-06-20T23:11:11.376Z,16.59
2019-06-20T23:13:40.283Z,16.53
2019-06-20T23:16:09.247Z,16.47
2019-06-20T23:18:38.255Z,16.41
2019-06-20T23:21:07.147Z,16.36
2019-06-20T23:23:36.790Z,16.30
2019-06-20T23:26:05.667Z,16.24
2019-06-20T23:28:34.602Z,16.19
2019-06-20T23:31:03.561Z,16.14
2019-06-20T23:33:32.536Z,16.09
2019-06-20T23:36:01.607Z,16.04
2019-06-20T23:38:31.402Z,16.01
2019-06-20T23:41:00.240Z,15.94
2019-06-20T23:43:29.194Z,15.91
2019-06-20T23:45:59.437Z,15.86
2019-06-20T23:48:30.605Z,15.82
2019-06-20T23:50:59.497Z,15.78
2019-06-20T23:53:28.480Z,15.75
2019-06-20T23:55:59.492Z,15.70
2019-06-20T23:58:28.521Z,15.67
